MSR109 HECA-LEMD
Flight info
| Callsign | MSR109 |
|---|---|
| Flight time | N/A |
| Altitude | 32000 |
| Route | CVO L617 NABSI M872 METRU DCT ARLOS DCT DINUX/N0458F340 DCT SONAK DCT MORJA UA411 ANB UM134 LUXUR DCT GENIO DCT XARON DCT OLMIR DCT NINES/N0453F350 M134 VLC N733 CLS/N0454F360 DCT WALLY DCT CATON DCT CENTA/N0340F130 N733 PRADO |
| Aircraft | A321/M-SDE3FGHIRWY/LB1 |
Departure
| Time | N/A |
|---|---|
| Airport | Cairo International Airport (HECA) |
Arrival
| Time | 2026-05-07 21:58 |
|---|---|
| Airport | Adolfo Suárez Madrid–Barajas Airport (LEMD) |
| Time | Latitude | Longitude | Altitude | Speed | Heading |
|---|---|---|---|---|---|
| 2026-05-07 21:36 | 39.99276 | -1.64745 | 25275 ft | 355 kts | 297° |
| 2026-05-07 21:36 | 40.00478 | -1.67557 | 25032 ft | 355 kts | 298° |
| 2026-05-07 21:37 | 40.01694 | -1.70374 | 24792 ft | 355 kts | 298° |
| 2026-05-07 21:37 | 40.02908 | -1.73184 | 24572 ft | 356 kts | 298° |
| 2026-05-07 21:37 | 40.04108 | -1.75966 | 24344 ft | 356 kts | 298° |
| 2026-05-07 21:37 | 40.05320 | -1.78791 | 24112 ft | 356 kts | 298° |
| 2026-05-07 21:38 | 40.06525 | -1.81615 | 23883 ft | 353 kts | 298° |
| 2026-05-07 21:38 | 40.07707 | -1.84389 | 23525 ft | 347 kts | 298° |
| 2026-05-07 21:38 | 40.08869 | -1.87118 | 23098 ft | 341 kts | 298° |
| 2026-05-07 21:38 | 40.10013 | -1.89805 | 22699 ft | 335 kts | 298° |
| 2026-05-07 21:39 | 40.11134 | -1.92444 | 22310 ft | 328 kts | 298° |
| 2026-05-07 21:39 | 40.12235 | -1.95039 | 21933 ft | 324 kts | 298° |
| 2026-05-07 21:39 | 40.13326 | -1.97613 | 21543 ft | 324 kts | 298° |
| 2026-05-07 21:39 | 40.14420 | -2.00195 | 21147 ft | 324 kts | 298° |
| 2026-05-07 21:40 | 40.15517 | -2.02799 | 20765 ft | 336 kts | 298° |
| 2026-05-07 21:40 | 40.16667 | -2.05526 | 20360 ft | 347 kts | 298° |
| 2026-05-07 21:40 | 40.17835 | -2.08296 | 19948 ft | 349 kts | 298° |
| 2026-05-07 21:40 | 40.19011 | -2.11082 | 19526 ft | 350 kts | 298° |
| 2026-05-07 21:41 | 40.20175 | -2.13834 | 19119 ft | 350 kts | 298° |
| 2026-05-07 21:41 | 40.21355 | -2.16627 | 18707 ft | 350 kts | 298° |
| 2026-05-07 21:41 | 40.22531 | -2.19418 | 18290 ft | 350 kts | 298° |
| 2026-05-07 21:41 | 40.23705 | -2.22206 | 17838 ft | 350 kts | 297° |
| 2026-05-07 21:42 | 40.24875 | -2.24992 | 17421 ft | 347 kts | 296° |
| 2026-05-07 21:42 | 40.25771 | -2.27905 | 17016 ft | 345 kts | 285° |
| 2026-05-07 21:42 | 40.26195 | -2.30984 | 16611 ft | 343 kts | 273° |
| 2026-05-07 21:42 | 40.26214 | -2.34109 | 16200 ft | 343 kts | 269° |
| 2026-05-07 21:43 | 40.26192 | -2.37222 | 15804 ft | 341 kts | 269° |
| 2026-05-07 21:43 | 40.26175 | -2.40320 | 15394 ft | 340 kts | 269° |
| 2026-05-07 21:43 | 40.26159 | -2.43408 | 14984 ft | 339 kts | 269° |
| 2026-05-07 21:43 | 40.26144 | -2.46482 | 14589 ft | 337 kts | 269° |
| 2026-05-07 21:44 | 40.26129 | -2.49489 | 14413 ft | 319 kts | 269° |
| 2026-05-07 21:44 | 40.26113 | -2.52288 | 14285 ft | 296 kts | 269° |
| 2026-05-07 21:44 | 40.26097 | -2.54905 | 14120 ft | 281 kts | 268° |
| 2026-05-07 21:44 | 40.26084 | -2.57390 | 13935 ft | 273 kts | 268° |
| 2026-05-07 21:45 | 40.26070 | -2.59861 | 13660 ft | 269 kts | 268° |
| 2026-05-07 21:45 | 40.26055 | -2.62311 | 13391 ft | 267 kts | 268° |
| 2026-05-07 21:45 | 40.26046 | -2.64733 | 13126 ft | 266 kts | 268° |
| 2026-05-07 21:45 | 40.26040 | -2.67148 | 12862 ft | 265 kts | 269° |
| 2026-05-07 21:46 | 40.26037 | -2.69554 | 12606 ft | 264 kts | 268° |
| 2026-05-07 21:46 | 40.26033 | -2.71950 | 12347 ft | 262 kts | 268° |
| 2026-05-07 21:46 | 40.26026 | -2.74339 | 12090 ft | 261 kts | 268° |
| 2026-05-07 21:46 | 40.26018 | -2.76717 | 11829 ft | 260 kts | 268° |
| 2026-05-07 21:47 | 40.26010 | -2.79085 | 11577 ft | 260 kts | 268° |
| 2026-05-07 21:47 | 40.26001 | -2.81445 | 11327 ft | 259 kts | 268° |
| 2026-05-07 21:47 | 40.25991 | -2.83766 | 11081 ft | 258 kts | 268° |
| 2026-05-07 21:47 | 40.25981 | -2.86109 | 10834 ft | 257 kts | 268° |
| 2026-05-07 21:48 | 40.25969 | -2.88444 | 10591 ft | 256 kts | 268° |
| 2026-05-07 21:48 | 40.25957 | -2.90770 | 10343 ft | 255 kts | 268° |
| 2026-05-07 21:48 | 40.25946 | -2.93088 | 10109 ft | 254 kts | 268° |
| 2026-05-07 21:48 | 40.25936 | -2.95395 | 9908 ft | 252 kts | 268° |
| 2026-05-07 21:49 | 40.25923 | -2.97700 | 9778 ft | 253 kts | 268° |
| 2026-05-07 21:49 | 40.25909 | -3.00005 | 9584 ft | 253 kts | 268° |
| 2026-05-07 21:49 | 40.25894 | -3.02301 | 9343 ft | 252 kts | 268° |
| 2026-05-07 21:49 | 40.25879 | -3.04590 | 9095 ft | 251 kts | 268° |
| 2026-05-07 21:50 | 40.25864 | -3.06869 | 8845 ft | 249 kts | 268° |
| 2026-05-07 21:50 | 40.25851 | -3.09129 | 8601 ft | 248 kts | 268° |
| 2026-05-07 21:50 | 40.25837 | -3.11390 | 8372 ft | 248 kts | 268° |
| 2026-05-07 21:50 | 40.25849 | -3.13638 | 8128 ft | 247 kts | 274° |
| 2026-05-07 21:51 | 40.26127 | -3.15866 | 7885 ft | 247 kts | 278° |
| 2026-05-07 21:51 | 40.26424 | -3.18076 | 7641 ft | 247 kts | 278° |
| 2026-05-07 21:51 | 40.26716 | -3.20289 | 7397 ft | 246 kts | 278° |
| 2026-05-07 21:51 | 40.27001 | -3.22464 | 7152 ft | 245 kts | 278° |
| 2026-05-07 21:52 | 40.27290 | -3.24663 | 6914 ft | 245 kts | 278° |
| 2026-05-07 21:52 | 40.27577 | -3.26853 | 6667 ft | 244 kts | 278° |
| 2026-05-07 21:52 | 40.27862 | -3.29041 | 6423 ft | 243 kts | 278° |
| 2026-05-07 21:52 | 40.28164 | -3.31211 | 6161 ft | 243 kts | 283° |
| 2026-05-07 21:53 | 40.28827 | -3.33245 | 5936 ft | 244 kts | 301° |
| 2026-05-07 21:53 | 40.29885 | -3.34984 | 5765 ft | 245 kts | 309° |
| 2026-05-07 21:53 | 40.30999 | -3.36685 | 5677 ft | 247 kts | 309° |
| 2026-05-07 21:53 | 40.32193 | -3.38247 | 5592 ft | 239 kts | 318° |
| 2026-05-07 21:54 | 40.33465 | -3.39584 | 5348 ft | 229 kts | 321° |
| 2026-05-07 21:54 | 40.34699 | -3.40817 | 5052 ft | 215 kts | 321° |
| 2026-05-07 21:54 | 40.35834 | -3.41957 | 4786 ft | 196 kts | 321° |
| 2026-05-07 21:54 | 40.36870 | -3.43002 | 4529 ft | 179 kts | 321° |
| 2026-05-07 21:55 | 40.37825 | -3.43968 | 4301 ft | 170 kts | 322° |
| 2026-05-07 21:55 | 40.38756 | -3.44909 | 4076 ft | 167 kts | 322° |
| 2026-05-07 21:55 | 40.39675 | -3.45839 | 3859 ft | 166 kts | 322° |
| 2026-05-07 21:55 | 40.40585 | -3.46759 | 3632 ft | 165 kts | 323° |
| 2026-05-07 21:56 | 40.41488 | -3.47673 | 3420 ft | 164 kts | 323° |
| 2026-05-07 21:56 | 40.42379 | -3.48575 | 3174 ft | 163 kts | 323° |
| 2026-05-07 21:56 | 40.43254 | -3.49461 | 2953 ft | 156 kts | 323° |
| 2026-05-07 21:56 | 40.44101 | -3.50317 | 2726 ft | 151 kts | 323° |
| 2026-05-07 21:57 | 40.44940 | -3.51152 | 2537 ft | 151 kts | 323° |
| 2026-05-07 21:57 | 40.45762 | -3.51992 | 2316 ft | 149 kts | 323° |
| 2026-05-07 21:57 | 40.46580 | -3.52828 | 2132 ft | 149 kts | 323° |
| 2026-05-07 21:57 | 40.47401 | -3.53650 | 1950 ft | 148 kts | 320° |
| 2026-05-07 21:58 | 40.48196 | -3.54486 | 1948 ft | 146 kts | 325° |
| 2026-05-07 21:58 | 40.48959 | -3.55243 | 1952 ft | 106 kts | 322° |
| 2026-05-07 21:58 | 40.49315 | -3.55612 | 1961 ft | 38 kts | 322° |
| 2026-05-07 21:58 | 40.49485 | -3.55780 | 1963 ft | 25 kts | 323° |
| 2026-05-07 21:59 | 40.49554 | -3.55975 | 1960 ft | 20 kts | 269° |
| 2026-05-07 21:59 | 40.49554 | -3.56133 | 1959 ft | 14 kts | 270° |
| 2026-05-07 21:59 | 40.49554 | -3.56241 | 1961 ft | 11 kts | 270° |
| 2026-05-07 21:59 | 40.49554 | -3.56324 | 1963 ft | 8 kts | 270° |
| 2026-05-07 22:00 | 40.49554 | -3.56396 | 1965 ft | 7 kts | 269° |
| 2026-05-07 22:00 | 40.49553 | -3.56457 | 1967 ft | 6 kts | 269° |
| 2026-05-07 22:00 | 40.49556 | -3.56511 | 1968 ft | 6 kts | 282° |
| 2026-05-07 22:00 | 40.49562 | -3.56566 | 1972 ft | 6 kts | 272° |
| 2026-05-07 22:01 | 40.49562 | -3.56626 | 1972 ft | 7 kts | 270° |
| 2026-05-07 22:01 | 40.49562 | -3.56659 | 1972 ft | 3 kts | 269° |
| 2026-05-07 22:01 | 40.49562 | -3.56662 | 1972 ft | 0 kts | 269° |